createdAt,value
2023-03-18T00:00:25.531Z,99483.34
2023-03-18T00:02:54.942Z,99480.78
2023-03-18T00:05:22.637Z,99482.41
2023-03-18T00:07:50.339Z,99485.78
2023-03-18T00:10:18.760Z,99488.25
2023-03-18T00:12:46.336Z,99482.28
2023-03-18T00:15:17.981Z,99498.47
2023-03-18T00:17:45.605Z,99500.19
2023-03-18T00:20:18.157Z,99507.88
2023-03-18T00:22:46.752Z,99505.97
2023-03-18T00:25:16.293Z,99508.41
2023-03-18T00:27:43.859Z,99507.50
2023-03-18T00:30:13.302Z,99506.59
2023-03-18T00:32:42.127Z,99512.44
2023-03-18T00:35:10.856Z,99510.63
2023-03-18T00:37:39.855Z,99527.75
2023-03-18T00:40:10.555Z,99523.44
2023-03-18T00:42:47.204Z,99517.34
2023-03-18T00:45:17.004Z,99520.75
2023-03-18T00:47:45.398Z,99515.63
2023-03-18T00:50:13.627Z,99523.31
2023-03-18T00:52:42.652Z,99525.84
2023-03-18T00:55:11.572Z,99518.81
2023-03-18T00:57:39.231Z,99517.22
2023-03-18T01:00:08.036Z,99530.00
2023-03-18T01:02:35.827Z,99529.91
2023-03-18T01:05:04.072Z,99528.94
2023-03-18T01:07:31.862Z,99535.78
2023-03-18T01:10:01.136Z,99535.78
2023-03-18T01:12:28.713Z,99535.78
2023-03-18T01:14:56.367Z,99538.31
2023-03-18T01:17:23.979Z,99534.06
2023-03-18T01:19:51.513Z,99535.75
2023-03-18T01:22:19.554Z,99525.38
2023-03-18T01:24:50.537Z,99530.44
2023-03-18T01:27:22.344Z,99523.56
2023-03-18T01:29:50.081Z,99519.28
2023-03-18T01:32:24.035Z,99513.28
2023-03-18T01:34:51.901Z,99511.47
2023-03-18T01:39:55.322Z,99527.44
2023-03-18T01:42:25.817Z,99525.81
2023-03-18T01:45:19.896Z,99533.44
2023-03-18T01:47:49.930Z,99530.84
2023-03-18T01:50:22.995Z,99528.31
2023-03-18T01:52:56.225Z,99516.31
2023-03-18T01:55:27.359Z,99523.13
2023-03-18T01:57:57.109Z,99520.47
2023-03-18T02:00:25.298Z,99527.31
2023-03-18T02:02:54.896Z,99517.91
2023-03-18T02:07:52.663Z,99513.50
2023-03-18T02:10:23.881Z,99517.66
2023-03-18T02:12:54.256Z,99522.72
2023-03-18T02:15:33.006Z,99515.81
2023-03-18T02:18:05.765Z,99517.50
2023-03-18T02:20:42.122Z,99521.72
2023-03-18T02:23:25.750Z,99524.16
2023-03-18T02:26:00.275Z,99526.59
2023-03-18T02:28:31.754Z,99522.19
2023-03-18T02:31:04.989Z,99521.22
2023-03-18T02:33:36.335Z,99525.44
2023-03-18T02:36:07.508Z,99521.88
2023-03-18T02:38:42.755Z,99518.22
2023-03-18T02:41:19.900Z,99525.88
2023-03-18T02:43:51.544Z,99530.06
2023-03-18T02:46:42.418Z,99536.00
2023-03-18T02:49:11.098Z,99536.84
2023-03-18T02:51:39.494Z,99533.38
2023-03-18T02:54:10.124Z,99528.13
2023-03-18T02:56:38.113Z,99537.50
2023-03-18T02:59:07.314Z,99538.25
2023-03-18T03:01:36.466Z,99534.69
2023-03-18T03:04:06.772Z,99536.16
2023-03-18T03:06:35.969Z,99533.41
2023-03-18T03:09:04.416Z,99534.25
2023-03-18T03:11:32.072Z,99537.63
2023-03-18T03:14:09.341Z,99541.78
2023-03-18T03:16:37.691Z,99541.69
2023-03-18T03:19:06.670Z,99541.63
2023-03-18T03:21:35.865Z,99547.59
2023-03-18T03:24:04.102Z,99549.25
2023-03-18T03:26:32.255Z,99547.50
2023-03-18T03:29:00.487Z,99542.38
2023-03-18T03:31:29.417Z,99552.63
2023-03-18T03:33:58.499Z,99550.03
2023-03-18T03:36:26.147Z,99549.06
2023-03-18T03:38:53.922Z,99544.69
2023-03-18T03:41:22.115Z,99554.94
2023-03-18T03:43:50.560Z,99555.69
2023-03-18T03:46:18.104Z,99553.00
2023-03-18T03:48:48.371Z,99551.25
2023-03-18T03:51:17.272Z,99551.06
2023-03-18T03:53:46.142Z,99557.88
2023-03-18T03:56:15.498Z,99563.88
2023-03-18T03:58:43.191Z,99558.66
2023-03-18T04:01:10.909Z,99567.19
2023-03-18T04:03:38.979Z,99560.31
2023-03-18T04:06:10.748Z,99560.31
2023-03-18T04:08:44.802Z,99561.13
2023-03-18T04:11:12.498Z,99573.06
2023-03-18T04:13:42.653Z,99574.69
2023-03-18T04:16:10.542Z,99574.69
2023-03-18T04:18:38.214Z,99576.38
2023-03-18T04:21:08.035Z,99573.75
2023-03-18T04:23:57.434Z,99568.53
2023-03-18T04:26:25.234Z,99570.19
2023-03-18T04:28:54.343Z,99569.22
2023-03-18T04:31:23.164Z,99565.78
2023-03-18T04:33:50.897Z,99565.72
2023-03-18T04:36:18.564Z,99569.03
2023-03-18T04:38:46.336Z,99569.75
2023-03-18T04:41:15.333Z,99569.88
2023-03-18T04:43:43.313Z,99570.38
2023-03-18T04:46:11.934Z,99572.84
2023-03-18T04:48:40.613Z,99574.50
2023-03-18T04:51:10.171Z,99569.19
2023-03-18T04:53:40.174Z,99569.06
2023-03-18T04:56:10.292Z,99577.69
2023-03-18T04:58:46.464Z,99575.00
2023-03-18T05:01:19.253Z,99572.34
2023-03-18T05:03:47.343Z,99579.97
2023-03-18T05:06:22.882Z,99575.56
2023-03-18T05:09:00.150Z,99568.75
2023-03-18T05:11:33.025Z,99568.66
2023-03-18T05:14:08.609Z,99575.41
2023-03-18T05:16:43.211Z,99580.50
2023-03-18T05:19:11.068Z,99585.63
2023-03-18T05:21:45.615Z,99579.72
2023-03-18T05:24:13.240Z,99586.53
2023-03-18T05:26:42.611Z,99585.63
2023-03-18T05:29:12.652Z,99582.28
2023-03-18T05:31:52.029Z,99585.88
2023-03-18T05:34:19.816Z,99587.53
2023-03-18T05:36:48.105Z,99581.66
2023-03-18T05:39:16.309Z,99584.22
2023-03-18T05:41:44.801Z,99591.06
2023-03-18T05:44:17.224Z,99594.44
2023-03-18T05:46:44.929Z,99599.56
2023-03-18T05:49:18.109Z,99598.66
2023-03-18T05:52:05.906Z,99598.41
2023-03-18T05:54:39.565Z,99595.88
2023-03-18T05:57:07.347Z,99599.38
2023-03-18T05:59:36.638Z,99601.09
2023-03-18T06:02:04.405Z,99595.00
2023-03-18T06:04:32.623Z,99604.28
2023-03-18T06:07:01.131Z,99605.06
2023-03-18T06:09:28.717Z,99609.28
2023-03-18T06:11:57.137Z,99617.00
2023-03-18T06:14:29.173Z,99614.38
2023-03-18T06:17:01.403Z,99622.00
2023-03-18T06:19:30.681Z,99613.47
2023-03-18T06:21:58.722Z,99617.75
2023-03-18T06:24:26.304Z,99620.31
2023-03-18T06:26:55.612Z,99624.63
2023-03-18T06:29:23.750Z,99615.22
2023-03-18T06:31:53.156Z,99622.09
2023-03-18T06:34:26.656Z,99621.41
2023-03-18T06:36:56.472Z,99623.22
2023-03-18T06:39:24.705Z,99625.84
2023-03-18T06:41:53.044Z,99624.28
2023-03-18T06:44:29.910Z,99620.03
2023-03-18T06:47:02.676Z,99616.84
2023-03-18T06:49:35.961Z,99626.38
2023-03-18T06:52:13.434Z,99629.34
2023-03-18T06:54:44.518Z,99624.63
2023-03-18T06:57:12.313Z,99622.13
2023-03-18T06:59:40.628Z,99625.66
2023-03-18T07:02:10.974Z,99623.09
2023-03-18T07:04:40.077Z,99629.09
2023-03-18T07:07:08.332Z,99634.41
2023-03-18T07:09:37.551Z,99631.88
2023-03-18T07:12:06.322Z,99629.44
2023-03-18T07:14:33.988Z,99635.56
2023-03-18T07:17:02.110Z,99638.47
2023-03-18T07:19:29.875Z,99643.22
2023-03-18T07:21:58.911Z,99645.78
2023-03-18T07:24:26.843Z,99652.94
2023-03-18T07:26:54.550Z,99646.22
2023-03-18T07:29:22.159Z,99652.38
2023-03-18T07:31:50.152Z,99647.53
2023-03-18T07:34:18.727Z,99657.13
2023-03-18T07:36:46.847Z,99647.16
2023-03-18T07:39:15.841Z,99649.06
2023-03-18T07:41:43.771Z,99656.28
2023-03-18T07:52:29.353Z,99660.59
2023-03-18T07:54:58.213Z,99666.69
2023-03-18T07:57:25.959Z,99665.75
2023-03-18T07:59:53.516Z,99665.81
2023-03-18T08:02:21.632Z,99648.78
2023-03-18T08:04:49.299Z,99660.00
2023-03-18T08:07:17.159Z,99654.13
2023-03-18T08:09:44.862Z,99648.38
2023-03-18T08:12:13.986Z,99651.94
2023-03-18T08:14:41.560Z,99660.69
2023-03-18T08:17:09.582Z,99651.94
2023-03-18T08:19:37.498Z,99658.06
2023-03-18T08:22:05.103Z,99647.50
2023-03-18T08:24:32.706Z,99649.75
2023-03-18T08:27:00.230Z,99650.16
2023-03-18T08:29:29.181Z,99658.44
2023-03-18T08:31:57.084Z,99655.31
2023-03-18T08:34:24.619Z,99651.09
2023-03-18T08:36:52.558Z,99647.16
2023-03-18T08:39:20.226Z,99653.00
2023-03-18T08:41:48.637Z,99653.88
2023-03-18T08:44:16.360Z,99660.00
2023-03-18T08:46:45.315Z,99660.25
2023-03-18T08:49:13.927Z,99664.75
2023-03-18T08:51:41.940Z,99663.31
2023-03-18T08:54:09.559Z,99670.44
2023-03-18T08:56:38.104Z,99668.19
2023-03-18T08:59:05.643Z,99672.72
2023-03-18T09:01:33.259Z,99667.75
2023-03-18T09:04:02.176Z,99665.25
2023-03-18T09:06:30.305Z,99664.41
2023-03-18T09:08:58.092Z,99658.59
2023-03-18T09:11:26.266Z,99655.38
2023-03-18T09:13:54.476Z,99653.81
2023-03-18T09:16:22.807Z,99646.13
2023-03-18T09:18:50.434Z,99652.19
2023-03-18T09:21:19.416Z,99638.38
2023-03-18T09:23:46.963Z,99641.84
2023-03-18T09:26:14.748Z,99638.34
2023-03-18T09:28:42.336Z,99634.84
2023-03-18T09:31:09.910Z,99635.56
2023-03-18T09:33:37.699Z,99631.16
2023-03-18T09:36:05.967Z,99631.94
2023-03-18T09:38:35.182Z,99624.19
2023-03-18T09:41:17.402Z,99619.75
2023-03-18T09:43:57.218Z,99615.28
2023-03-18T09:46:33.812Z,99625.47
2023-03-18T09:49:36.871Z,99619.19
2023-03-18T09:52:14.808Z,99614.66
2023-03-18T09:54:50.010Z,99612.66
2023-03-18T09:57:23.812Z,99610.03
2023-03-18T09:59:55.673Z,99609.13
2023-03-18T10:02:28.314Z,99610.88
2023-03-18T10:04:59.502Z,99609.91
2023-03-18T10:07:34.429Z,99613.41
2023-03-18T10:10:10.202Z,99603.78
2023-03-18T10:12:41.983Z,99605.34
2023-03-18T10:15:17.812Z,99605.06
2023-03-18T10:17:51.592Z,99606.44
2023-03-18T10:20:21.529Z,99597.59
2023-03-18T10:23:07.050Z,99596.75
2023-03-18T10:25:40.479Z,99593.22
2023-03-18T10:28:38.438Z,99605.63
2023-03-18T10:31:17.125Z,99604.81
2023-03-18T10:33:49.021Z,99601.03
2023-03-18T10:36:20.707Z,99609.13
2023-03-18T10:38:52.622Z,99602.44
2023-03-18T10:41:28.782Z,99601.78
2023-03-18T10:43:57.990Z,99594.63
2023-03-18T10:46:28.243Z,99589.81
2023-03-18T10:49:01.493Z,99587.94
2023-03-18T10:51:35.486Z,99590.84
2023-03-18T10:54:10.441Z,99591.19
2023-03-18T10:56:39.436Z,99590.69
2023-03-18T10:59:13.226Z,99588.81
2023-03-18T11:01:41.532Z,99586.97
2023-03-18T11:04:15.370Z,99592.69
2023-03-18T11:06:48.117Z,99584.81
2023-03-18T11:09:19.818Z,99586.44
2023-03-18T11:11:49.966Z,99577.81
2023-03-18T11:14:20.930Z,99590.47
2023-03-18T11:16:57.430Z,99585.31
2023-03-18T11:19:32.029Z,99581.75
2023-03-18T11:22:17.410Z,99584.16
2023-03-18T11:24:45.044Z,99568.06
2023-03-18T11:27:29.976Z,99565.50
2023-03-18T11:30:00.244Z,99562.44
2023-03-18T11:32:31.076Z,99575.34
2023-03-18T11:35:00.732Z,99574.19
2023-03-18T11:37:31.316Z,99569.69
2023-03-18T11:40:18.305Z,99564.31
2023-03-18T11:42:49.570Z,99570.63
2023-03-18T11:45:32.055Z,99568.66
2023-03-18T11:47:59.908Z,99563.63
2023-03-18T11:50:39.294Z,99566.75
2023-03-18T11:53:14.220Z,99564.31
2023-03-18T11:55:46.578Z,99556.56
2023-03-18T11:58:41.918Z,99556.91
2023-03-18T12:09:42.624Z,99548.63
2023-03-18T12:12:29.268Z,99555.25
2023-03-18T12:15:06.609Z,99552.50
2023-03-18T12:17:44.644Z,99543.44
2023-03-18T12:20:31.354Z,99544.19
2023-03-18T12:23:04.773Z,99542.91
2023-03-18T12:25:50.521Z,99538.19
2023-03-18T12:28:28.355Z,99535.09
2023-03-18T12:31:13.975Z,99537.09
2023-03-18T12:33:55.108Z,99531.25
2023-03-18T12:36:32.238Z,99527.88
2023-03-18T12:39:45.399Z,99534.44
2023-03-18T12:42:18.137Z,99531.09
2023-03-18T12:44:59.314Z,99524.38
2023-03-18T12:47:36.984Z,99524.97
2023-03-18T12:50:08.860Z,99526.09
2023-03-18T12:52:43.858Z,99525.34
2023-03-18T12:55:17.061Z,99523.19
2023-03-18T12:57:47.493Z,99507.72
2023-03-18T13:00:23.655Z,99509.78
2023-03-18T13:03:06.196Z,99517.56
2023-03-18T13:05:41.573Z,99513.88
2023-03-18T13:08:45.129Z,99515.13
2023-03-18T13:11:27.006Z,99507.47
2023-03-18T13:14:00.681Z,99521.22
2023-03-18T13:16:35.228Z,99515.38
2023-03-18T13:19:04.892Z,99515.19
2023-03-18T13:21:37.678Z,99504.44
2023-03-18T13:24:44.671Z,99506.28
2023-03-18T13:27:29.918Z,99493.16
2023-03-18T13:30:07.637Z,99499.72
2023-03-18T13:32:50.744Z,99497.63
2023-03-18T13:36:05.371Z,99496.69
2023-03-18T13:38:58.389Z,99497.38
2023-03-18T13:41:42.998Z,99493.50
2023-03-18T13:44:17.251Z,99492.38
2023-03-18T13:46:55.222Z,99492.88
2023-03-18T13:49:27.696Z,99481.47
2023-03-18T13:51:59.282Z,99487.47
2023-03-18T13:54:34.730Z,99496.97
2023-03-18T13:57:19.300Z,99483.91
2023-03-18T13:59:49.585Z,99484.25
2023-03-18T14:02:43.465Z,99492.13
2023-03-18T14:05:35.333Z,99497.53
2023-03-18T14:08:07.102Z,99491.00
2023-03-18T14:10:34.704Z,99485.41
2023-03-18T14:13:27.358Z,99482.53
2023-03-18T14:15:58.679Z,99478.53
2023-03-18T14:18:28.911Z,99479.81
2023-03-18T14:21:02.561Z,99473.47
2023-03-18T14:23:38.841Z,99474.09
2023-03-18T14:26:09.310Z,99477.34
2023-03-18T14:28:46.287Z,99473.25
2023-03-18T14:31:22.328Z,99465.97
2023-03-18T14:34:02.743Z,99470.50
2023-03-18T14:36:46.858Z,99476.53
2023-03-18T14:39:19.828Z,99471.44
2023-03-18T14:41:49.577Z,99466.09
2023-03-18T14:44:22.820Z,99451.97
2023-03-18T14:46:53.450Z,99455.66
2023-03-18T14:49:35.463Z,99449.59
2023-03-18T14:52:07.319Z,99457.09
2023-03-18T14:54:43.643Z,99454.00
2023-03-18T14:57:11.428Z,99456.94
2023-03-18T14:59:38.974Z,99452.81
2023-03-18T15:02:21.158Z,99452.47
2023-03-18T15:04:54.408Z,99453.50
2023-03-18T15:07:26.329Z,99439.94
2023-03-18T15:09:56.830Z,99442.19
2023-03-18T15:12:27.979Z,99449.28
2023-03-18T15:14:55.690Z,99440.50
2023-03-18T15:17:27.219Z,99442.72
2023-03-18T15:19:59.927Z,99446.38
2023-03-18T15:22:31.249Z,99446.34
2023-03-18T15:25:02.769Z,99441.81
2023-03-18T15:27:33.032Z,99449.53
2023-03-18T15:30:04.586Z,99444.69
2023-03-18T15:32:33.499Z,99435.91
2023-03-18T15:35:16.450Z,99444.97
2023-03-18T15:37:45.245Z,99440.81
2023-03-18T15:40:25.998Z,99438.03
2023-03-18T15:42:56.509Z,99433.09
2023-03-18T15:45:28.088Z,99437.81
2023-03-18T15:47:55.940Z,99444.31
2023-03-18T15:50:29.162Z,99436.69
2023-03-18T15:53:07.102Z,99440.06
2023-03-18T15:55:48.446Z,99438.63
2023-03-18T15:58:22.845Z,99437.78
2023-03-18T16:00:52.486Z,99442.25
2023-03-18T16:03:23.522Z,99442.09
2023-03-18T16:05:51.481Z,99444.13
2023-03-18T16:08:21.305Z,99436.56
2023-03-18T16:10:52.690Z,99437.06
2023-03-18T16:13:24.362Z,99436.88
2023-03-18T16:15:53.171Z,99439.00
2023-03-18T16:18:21.268Z,99436.34
2023-03-18T16:20:49.440Z,99441.88
2023-03-18T16:23:18.633Z,99443.03
2023-03-18T16:25:48.295Z,99448.41
2023-03-18T16:28:20.620Z,99452.13
2023-03-18T16:30:49.520Z,99465.53
2023-03-18T16:33:18.884Z,99452.22
2023-03-18T16:35:51.122Z,99464.16
2023-03-18T16:38:19.596Z,99470.03
2023-03-18T16:40:47.284Z,99471.94
2023-03-18T16:43:19.623Z,99473.38
2023-03-18T16:45:48.396Z,99478.88
2023-03-18T16:48:18.913Z,99474.66
2023-03-18T16:50:48.569Z,99471.69
2023-03-18T16:53:19.018Z,99479.78
2023-03-18T16:55:48.010Z,99482.53
2023-03-18T16:58:19.556Z,99487.84
2023-03-18T17:00:51.196Z,99490.47
2023-03-18T17:03:19.962Z,99496.53
2023-03-18T17:05:50.206Z,99492.31
2023-03-18T17:08:19.087Z,99497.78
2023-03-18T17:10:49.281Z,99494.50
2023-03-18T17:13:22.797Z,99496.59
2023-03-18T17:15:51.537Z,99499.44
2023-03-18T17:18:21.196Z,99493.78
2023-03-18T17:20:49.978Z,99498.34
2023-03-18T17:23:20.312Z,99497.94
2023-03-18T17:25:51.694Z,99497.19
2023-03-18T17:28:27.798Z,99500.06
2023-03-18T17:30:55.644Z,99499.34
2023-03-18T17:33:26.974Z,99496.84
2023-03-18T17:35:56.436Z,99496.22
2023-03-18T17:38:24.062Z,99495.53
2023-03-18T17:40:51.931Z,99502.66
2023-03-18T17:43:28.492Z,99501.06
2023-03-18T17:45:56.519Z,99502.88
2023-03-18T17:48:26.305Z,99503.84
2023-03-18T17:50:56.060Z,99513.47
2023-03-18T17:53:27.379Z,99514.44
2023-03-18T17:55:55.837Z,99513.59
2023-03-18T17:58:27.405Z,99511.97
2023-03-18T18:00:55.771Z,99514.63
2023-03-18T18:03:26.634Z,99508.63
2023-03-18T18:05:55.235Z,99518.16
2023-03-18T18:08:25.356Z,99517.34
2023-03-18T18:10:54.966Z,99524.28
2023-03-18T18:13:23.693Z,99525.16
2023-03-18T18:15:52.740Z,99521.69
2023-03-18T18:18:26.492Z,99514.78
2023-03-18T18:20:56.987Z,99513.94
2023-03-18T18:23:28.802Z,99513.06
2023-03-18T18:26:01.338Z,99511.34
2023-03-18T18:28:35.772Z,99519.09
2023-03-18T18:31:07.826Z,99511.31
2023-03-18T18:33:36.730Z,99522.47
2023-03-18T18:36:04.613Z,99531.09
2023-03-18T18:38:32.236Z,99527.63
2023-03-18T18:41:01.252Z,99521.53
2023-03-18T18:43:29.736Z,99528.41
2023-03-18T18:46:00.027Z,99529.25
2023-03-18T18:48:31.553Z,99535.25
2023-03-18T18:50:59.873Z,99538.69
2023-03-18T18:53:29.476Z,99544.72
2023-03-18T18:55:59.590Z,99534.31
2023-03-18T18:58:30.111Z,99534.31
2023-03-18T19:00:58.650Z,99531.69
2023-03-18T19:03:31.570Z,99535.97
2023-03-18T19:06:00.955Z,99538.53
2023-03-18T19:08:31.629Z,99536.78
2023-03-18T19:11:01.258Z,99536.69
2023-03-18T19:13:30.482Z,99533.22
2023-03-18T19:16:00.708Z,99528.84
2023-03-18T19:18:37.004Z,99533.16
2023-03-18T19:21:05.048Z,99544.28
2023-03-18T19:23:34.050Z,99545.97
2023-03-18T19:26:03.411Z,99544.19
2023-03-18T19:28:58.419Z,99547.63
2023-03-18T19:31:30.296Z,99550.19
2023-03-18T19:34:00.461Z,99545.84
2023-03-18T19:36:30.157Z,99547.47
2023-03-18T19:39:00.281Z,99551.78
2023-03-18T19:41:28.414Z,99541.41
2023-03-18T19:43:59.633Z,99552.53
2023-03-18T19:46:32.428Z,99555.94
2023-03-18T19:49:01.778Z,99556.75
2023-03-18T19:51:29.301Z,99559.31
2023-03-18T19:53:57.303Z,99560.13
2023-03-18T19:56:26.772Z,99566.97
2023-03-18T19:58:55.727Z,99562.66
2023-03-18T20:01:23.871Z,99559.19
2023-03-18T20:03:54.850Z,99566.00
2023-03-18T20:06:24.116Z,99570.34
2023-03-18T20:08:51.758Z,99567.72
2023-03-18T20:11:21.696Z,99571.09
2023-03-18T20:13:49.562Z,99565.94
2023-03-18T20:16:19.294Z,99559.84
2023-03-18T20:18:46.863Z,99558.94
2023-03-18T20:21:22.684Z,99565.84
2023-03-18T20:23:52.557Z,99579.59
2023-03-18T20:26:20.289Z,99584.75
2023-03-18T20:28:50.022Z,99573.50
2023-03-18T20:31:17.618Z,99573.50
2023-03-18T20:33:45.871Z,99583.81
2023-03-18T20:36:17.256Z,99588.06
2023-03-18T20:38:48.494Z,99588.91
2023-03-18T20:41:19.238Z,99588.00
2023-03-18T20:43:49.170Z,99587.06
2023-03-18T20:46:17.637Z,99592.22
2023-03-18T20:48:46.005Z,99591.31
2023-03-18T20:51:20.851Z,99584.44
2023-03-18T20:53:49.329Z,99587.81
2023-03-18T20:56:19.388Z,99578.28
2023-03-18T20:58:47.021Z,99592.03
2023-03-18T21:01:15.022Z,99589.38
2023-03-18T21:03:43.040Z,99589.38
2023-03-18T21:06:13.496Z,99584.16
2023-03-18T21:08:41.359Z,99588.47
2023-03-18T21:11:22.689Z,99601.31
2023-03-18T21:13:50.956Z,99595.22
2023-03-18T21:16:19.855Z,99601.25
2023-03-18T21:18:49.471Z,99597.78
2023-03-18T21:21:23.429Z,99599.47
2023-03-18T21:23:52.311Z,99601.16
2023-03-18T21:26:21.635Z,99597.66
2023-03-18T21:28:49.151Z,99597.59
2023-03-18T21:31:23.969Z,99599.28
2023-03-18T21:33:53.112Z,99601.81
2023-03-18T21:36:21.729Z,99606.97
2023-03-18T21:38:49.575Z,99606.03
2023-03-18T21:41:21.934Z,99604.25
2023-03-18T21:43:50.479Z,99612.81
2023-03-18T21:46:20.115Z,99608.47
2023-03-18T21:48:47.967Z,99615.16
2023-03-18T21:51:37.451Z,99621.94
2023-03-18T21:54:06.365Z,99619.25
2023-03-18T21:56:35.266Z,99626.06
2023-03-18T21:59:02.875Z,99629.38
2023-03-18T22:01:32.212Z,99619.88
2023-03-18T22:04:00.413Z,99618.06
2023-03-18T22:06:27.988Z,99630.03
2023-03-18T22:08:56.868Z,99627.41
2023-03-18T22:11:24.528Z,99625.72
2023-03-18T22:13:53.861Z,99617.09
2023-03-18T22:16:21.838Z,99616.25
2023-03-18T22:18:49.488Z,99617.97
2023-03-18T22:21:22.568Z,99615.38
2023-03-18T22:23:50.555Z,99610.25
2023-03-18T22:26:20.509Z,99618.84
2023-03-18T22:28:49.567Z,99613.69
2023-03-18T22:31:21.570Z,99617.97
2023-03-18T22:33:49.276Z,99616.28
2023-03-18T22:36:18.486Z,99612.03
2023-03-18T22:38:46.766Z,99619.78
2023-03-18T22:41:20.612Z,99617.22
2023-03-18T22:43:48.850Z,99604.38
2023-03-18T22:46:16.567Z,99604.41
2023-03-18T22:48:45.491Z,99616.31
2023-03-18T22:51:22.697Z,99620.25
2023-03-18T22:53:52.296Z,99635.53
2023-03-18T22:56:20.898Z,99635.59
2023-03-18T22:58:48.493Z,99639.88
2023-03-18T23:01:18.513Z,99643.31
2023-03-18T23:03:47.813Z,99639.91
2023-03-18T23:06:17.311Z,99642.38
2023-03-18T23:08:46.041Z,99642.25
2023-03-18T23:11:14.801Z,99643.03
2023-03-18T23:13:44.152Z,99647.44
2023-03-18T23:16:16.919Z,99638.00
2023-03-18T23:18:44.508Z,99634.53
2023-03-18T23:21:16.793Z,99642.25
2023-03-18T23:23:44.499Z,99640.44
2023-03-18T23:26:12.292Z,99645.59
2023-03-18T23:28:44.887Z,99643.00
2023-03-18T23:31:13.302Z,99649.03
2023-03-18T23:33:40.953Z,99645.47
2023-03-18T23:36:09.289Z,99645.41
2023-03-18T23:38:38.641Z,99648.81
2023-03-18T23:41:07.053Z,99648.03
2023-03-18T23:43:34.605Z,99647.22
2023-03-18T23:46:03.618Z,99638.59
2023-03-18T23:48:31.330Z,99647.13
2023-03-18T23:50:58.859Z,99639.47
2023-03-18T23:53:26.423Z,99622.34
2023-03-18T23:55:55.332Z,99628.47
2023-03-18T23:58:22.880Z,99635.19
